sensor_id;sensor_type;location;lat;lon;timestamp;P1;durP1;ratioP1;P2;durP2;ratioP2
5129;SDS011;2583;50.946;6.954;2023-08-21T00:01:31;9.63;;;8.80;;
5129;SDS011;2583;50.946;6.954;2023-08-21T00:03:58;11.10;;;9.33;;
5129;SDS011;2583;50.946;6.954;2023-08-21T00:06:25;9.33;;;8.53;;
5129;SDS011;2583;50.946;6.954;2023-08-21T00:08:52;9.27;;;8.40;;
5129;SDS011;2583;50.946;6.954;2023-08-21T00:11:18;8.33;;;7.80;;
5129;SDS011;2583;50.946;6.954;2023-08-21T00:13:45;10.80;;;8.63;;
5129;SDS011;2583;50.946;6.954;2023-08-21T00:16:15;9.73;;;8.97;;
5129;SDS011;2583;50.946;6.954;2023-08-21T00:18:43;9.80;;;8.53;;
5129;SDS011;2583;50.946;6.954;2023-08-21T00:21:09;8.90;;;8.20;;
5129;SDS011;2583;50.946;6.954;2023-08-21T00:23:36;9.57;;;8.87;;
5129;SDS011;2583;50.946;6.954;2023-08-21T00:26:03;9.50;;;9.00;;
5129;SDS011;2583;50.946;6.954;2023-08-21T00:28:30;10.83;;;8.93;;
5129;SDS011;2583;50.946;6.954;2023-08-21T00:31:02;9.63;;;8.73;;
5129;SDS011;2583;50.946;6.954;2023-08-21T00:33:30;9.03;;;8.20;;
5129;SDS011;2583;50.946;6.954;2023-08-21T00:35:57;9.27;;;8.47;;
5129;SDS011;2583;50.946;6.954;2023-08-21T00:38:24;8.43;;;7.40;;
5129;SDS011;2583;50.946;6.954;2023-08-21T00:40:52;8.60;;;7.93;;
5129;SDS011;2583;50.946;6.954;2023-08-21T00:43:19;8.80;;;7.30;;
5129;SDS011;2583;50.946;6.954;2023-08-21T00:45:47;7.70;;;6.67;;
5129;SDS011;2583;50.946;6.954;2023-08-21T00:48:15;7.37;;;6.73;;
5129;SDS011;2583;50.946;6.954;2023-08-21T00:50:43;7.73;;;6.90;;
5129;SDS011;2583;50.946;6.954;2023-08-21T00:53:11;7.17;;;6.47;;
5129;SDS011;2583;50.946;6.954;2023-08-21T00:55:38;8.37;;;7.67;;
5129;SDS011;2583;50.946;6.954;2023-08-21T00:58:06;7.73;;;7.13;;
5129;SDS011;2583;50.946;6.954;2023-08-21T01:00:37;16.80;;;7.70;;
5129;SDS011;2583;50.946;6.954;2023-08-21T01:03:04;8.67;;;6.57;;
5129;SDS011;2583;50.946;6.954;2023-08-21T01:05:31;7.53;;;6.93;;
5129;SDS011;2583;50.946;6.954;2023-08-21T01:08:02;8.17;;;6.70;;
5129;SDS011;2583;50.946;6.954;2023-08-21T01:10:37;10.53;;;7.57;;
5129;SDS011;2583;50.946;6.954;2023-08-21T01:13:23;8.13;;;7.10;;
5129;SDS011;2583;50.946;6.954;2023-08-21T01:16:05;8.40;;;6.67;;
5129;SDS011;2583;50.946;6.954;2023-08-21T01:18:33;7.80;;;7.10;;
5129;SDS011;2583;50.946;6.954;2023-08-21T01:21:02;7.00;;;6.47;;
5129;SDS011;2583;50.946;6.954;2023-08-21T01:23:34;9.37;;;7.50;;
5129;SDS011;2583;50.946;6.954;2023-08-21T01:26:04;8.10;;;7.37;;
5129;SDS011;2583;50.946;6.954;2023-08-21T01:28:31;7.80;;;7.30;;
5129;SDS011;2583;50.946;6.954;2023-08-21T01:31:02;8.17;;;7.47;;
5129;SDS011;2583;50.946;6.954;2023-08-21T01:33:52;7.67;;;6.97;;
5129;SDS011;2583;50.946;6.954;2023-08-21T01:36:22;8.57;;;7.47;;
5129;SDS011;2583;50.946;6.954;2023-08-21T01:38:50;6.90;;;6.40;;
5129;SDS011;2583;50.946;6.954;2023-08-21T01:41:18;6.87;;;6.27;;
5129;SDS011;2583;50.946;6.954;2023-08-21T01:43:44;7.87;;;7.27;;
5129;SDS011;2583;50.946;6.954;2023-08-21T01:46:11;7.53;;;7.00;;
5129;SDS011;2583;50.946;6.954;2023-08-21T01:48:38;6.80;;;6.17;;
5129;SDS011;2583;50.946;6.954;2023-08-21T01:51:05;12.83;;;9.53;;
5129;SDS011;2583;50.946;6.954;2023-08-21T01:53:32;11.67;;;10.57;;
5129;SDS011;2583;50.946;6.954;2023-08-21T01:55:59;11.73;;;7.60;;
5129;SDS011;2583;50.946;6.954;2023-08-21T01:58:26;8.73;;;7.43;;
5129;SDS011;2583;50.946;6.954;2023-08-21T02:00:53;8.40;;;7.60;;
5129;SDS011;2583;50.946;6.954;2023-08-21T02:03:19;8.67;;;7.97;;
5129;SDS011;2583;50.946;6.954;2023-08-21T02:05:46;8.70;;;7.00;;
5129;SDS011;2583;50.946;6.954;2023-08-21T02:08:13;9.17;;;7.73;;
5129;SDS011;2583;50.946;6.954;2023-08-21T02:10:48;7.90;;;7.13;;
5129;SDS011;2583;50.946;6.954;2023-08-21T02:13:18;7.70;;;7.17;;
5129;SDS011;2583;50.946;6.954;2023-08-21T02:15:45;7.70;;;6.90;;
5129;SDS011;2583;50.946;6.954;2023-08-21T02:18:12;8.17;;;7.57;;
5129;SDS011;2583;50.946;6.954;2023-08-21T02:20:39;7.27;;;6.80;;
5129;SDS011;2583;50.946;6.954;2023-08-21T02:23:05;7.50;;;6.70;;
5129;SDS011;2583;50.946;6.954;2023-08-21T02:25:32;7.13;;;6.27;;
5129;SDS011;2583;50.946;6.954;2023-08-21T02:27:59;7.37;;;6.77;;
5129;SDS011;2583;50.946;6.954;2023-08-21T02:30:28;7.20;;;6.50;;
5129;SDS011;2583;50.946;6.954;2023-08-21T02:32:55;8.10;;;7.40;;
5129;SDS011;2583;50.946;6.954;2023-08-21T02:35:22;12.97;;;7.70;;
5129;SDS011;2583;50.946;6.954;2023-08-21T02:37:48;8.20;;;7.40;;
5129;SDS011;2583;50.946;6.954;2023-08-21T02:40:15;8.23;;;7.60;;
5129;SDS011;2583;50.946;6.954;2023-08-21T02:42:42;8.40;;;7.80;;
5129;SDS011;2583;50.946;6.954;2023-08-21T02:45:09;8.30;;;7.50;;
5129;SDS011;2583;50.946;6.954;2023-08-21T02:47:39;10.13;;;7.20;;
5129;SDS011;2583;50.946;6.954;2023-08-21T02:50:07;7.30;;;6.60;;
5129;SDS011;2583;50.946;6.954;2023-08-21T02:52:35;6.77;;;6.17;;
5129;SDS011;2583;50.946;6.954;2023-08-21T02:55:03;9.80;;;6.20;;
5129;SDS011;2583;50.946;6.954;2023-08-21T02:57:31;6.33;;;5.93;;
5129;SDS011;2583;50.946;6.954;2023-08-21T02:59:57;7.03;;;6.53;;
5129;SDS011;2583;50.946;6.954;2023-08-21T03:02:24;7.07;;;6.37;;
5129;SDS011;2583;50.946;6.954;2023-08-21T03:04:51;9.57;;;6.20;;
5129;SDS011;2583;50.946;6.954;2023-08-21T03:07:18;6.87;;;6.13;;
5129;SDS011;2583;50.946;6.954;2023-08-21T03:09:45;6.40;;;5.90;;
5129;SDS011;2583;50.946;6.954;2023-08-21T03:12:13;6.70;;;6.10;;
5129;SDS011;2583;50.946;6.954;2023-08-21T03:14:40;6.47;;;5.80;;
5129;SDS011;2583;50.946;6.954;2023-08-21T03:17:07;6.77;;;6.20;;
5129;SDS011;2583;50.946;6.954;2023-08-21T03:19:34;7.30;;;6.70;;
5129;SDS011;2583;50.946;6.954;2023-08-21T03:22:01;8.13;;;6.77;;
5129;SDS011;2583;50.946;6.954;2023-08-21T03:24:28;8.50;;;7.70;;
5129;SDS011;2583;50.946;6.954;2023-08-21T03:26:54;7.13;;;6.00;;
5129;SDS011;2583;50.946;6.954;2023-08-21T03:29:21;6.00;;;5.43;;
5129;SDS011;2583;50.946;6.954;2023-08-21T03:31:52;11.67;;;5.93;;
5129;SDS011;2583;50.946;6.954;2023-08-21T03:34:20;6.50;;;6.03;;
5129;SDS011;2583;50.946;6.954;2023-08-21T03:36:47;6.60;;;6.07;;
5129;SDS011;2583;50.946;6.954;2023-08-21T03:39:14;7.20;;;6.50;;
5129;SDS011;2583;50.946;6.954;2023-08-21T03:41:41;7.00;;;6.30;;
5129;SDS011;2583;50.946;6.954;2023-08-21T03:44:08;8.43;;;7.20;;
5129;SDS011;2583;50.946;6.954;2023-08-21T03:46:35;7.50;;;6.70;;
5129;SDS011;2583;50.946;6.954;2023-08-21T03:49:01;7.73;;;6.90;;
5129;SDS011;2583;50.946;6.954;2023-08-21T03:51:28;9.00;;;7.13;;
5129;SDS011;2583;50.946;6.954;2023-08-21T03:53:55;7.50;;;6.93;;
5129;SDS011;2583;50.946;6.954;2023-08-21T03:56:22;8.50;;;8.00;;
5129;SDS011;2583;50.946;6.954;2023-08-21T03:58:49;7.33;;;6.87;;
5129;SDS011;2583;50.946;6.954;2023-08-21T04:01:16;8.57;;;7.83;;
5129;SDS011;2583;50.946;6.954;2023-08-21T04:03:43;8.77;;;8.03;;
5129;SDS011;2583;50.946;6.954;2023-08-21T04:06:10;7.67;;;7.17;;
5129;SDS011;2583;50.946;6.954;2023-08-21T04:08:36;8.57;;;7.77;;
5129;SDS011;2583;50.946;6.954;2023-08-21T04:11:04;8.00;;;7.37;;
5129;SDS011;2583;50.946;6.954;2023-08-21T04:13:32;11.10;;;7.13;;
5129;SDS011;2583;50.946;6.954;2023-08-21T04:15:58;11.50;;;7.50;;
5129;SDS011;2583;50.946;6.954;2023-08-21T04:18:25;7.83;;;6.60;;
5129;SDS011;2583;50.946;6.954;2023-08-21T04:21:07;8.43;;;7.80;;
5129;SDS011;2583;50.946;6.954;2023-08-21T04:23:34;7.00;;;6.60;;
5129;SDS011;2583;50.946;6.954;2023-08-21T04:26:02;8.77;;;7.90;;
5129;SDS011;2583;50.946;6.954;2023-08-21T04:28:32;6.97;;;6.47;;
5129;SDS011;2583;50.946;6.954;2023-08-21T04:30:59;12.37;;;7.27;;
5129;SDS011;2583;50.946;6.954;2023-08-21T04:33:27;7.57;;;6.93;;
5129;SDS011;2583;50.946;6.954;2023-08-21T04:35:55;7.23;;;6.60;;
5129;SDS011;2583;50.946;6.954;2023-08-21T04:38:22;6.83;;;6.30;;
5129;SDS011;2583;50.946;6.954;2023-08-21T04:40:49;6.70;;;6.03;;
5129;SDS011;2583;50.946;6.954;2023-08-21T04:43:16;6.10;;;5.60;;
5129;SDS011;2583;50.946;6.954;2023-08-21T04:45:49;6.80;;;6.17;;
5129;SDS011;2583;50.946;6.954;2023-08-21T04:48:16;6.77;;;6.17;;
5129;SDS011;2583;50.946;6.954;2023-08-21T04:50:43;7.33;;;6.13;;
5129;SDS011;2583;50.946;6.954;2023-08-21T04:53:10;6.33;;;5.73;;
5129;SDS011;2583;50.946;6.954;2023-08-21T04:55:37;6.70;;;6.10;;
5129;SDS011;2583;50.946;6.954;2023-08-21T04:58:06;7.90;;;6.30;;
5129;SDS011;2583;50.946;6.954;2023-08-21T05:00:33;7.23;;;6.50;;
5129;SDS011;2583;50.946;6.954;2023-08-21T05:03:01;6.47;;;5.60;;
5129;SDS011;2583;50.946;6.954;2023-08-21T05:05:28;8.03;;;6.53;;
5129;SDS011;2583;50.946;6.954;2023-08-21T05:07:55;11.83;;;7.37;;
5129;SDS011;2583;50.946;6.954;2023-08-21T05:10:21;7.13;;;6.40;;
5129;SDS011;2583;50.946;6.954;2023-08-21T05:12:48;7.27;;;6.67;;
5129;SDS011;2583;50.946;6.954;2023-08-21T05:15:15;9.93;;;7.33;;
5129;SDS011;2583;50.946;6.954;2023-08-21T05:17:42;7.67;;;6.70;;
5129;SDS011;2583;50.946;6.954;2023-08-21T05:20:09;7.73;;;7.17;;
5129;SDS011;2583;50.946;6.954;2023-08-21T05:22:40;7.60;;;7.07;;
5129;SDS011;2583;50.946;6.954;2023-08-21T05:25:07;6.70;;;6.03;;
5129;SDS011;2583;50.946;6.954;2023-08-21T05:27:34;7.80;;;7.20;;
5129;SDS011;2583;50.946;6.954;2023-08-21T05:30:01;7.27;;;6.70;;
5129;SDS011;2583;50.946;6.954;2023-08-21T05:32:29;7.70;;;7.20;;
5129;SDS011;2583;50.946;6.954;2023-08-21T05:34:56;7.90;;;6.70;;
5129;SDS011;2583;50.946;6.954;2023-08-21T05:37:22;9.20;;;8.33;;
5129;SDS011;2583;50.946;6.954;2023-08-21T05:39:49;10.40;;;6.90;;
5129;SDS011;2583;50.946;6.954;2023-08-21T05:42:16;7.60;;;6.90;;
5129;SDS011;2583;50.946;6.954;2023-08-21T05:44:43;7.90;;;7.20;;
5129;SDS011;2583;50.946;6.954;2023-08-21T05:47:09;8.03;;;7.57;;
5129;SDS011;2583;50.946;6.954;2023-08-21T05:49:36;8.83;;;7.97;;
5129;SDS011;2583;50.946;6.954;2023-08-21T05:52:03;12.70;;;9.10;;
5129;SDS011;2583;50.946;6.954;2023-08-21T05:54:30;10.60;;;9.47;;
5129;SDS011;2583;50.946;6.954;2023-08-21T05:56:57;10.63;;;9.63;;
5129;SDS011;2583;50.946;6.954;2023-08-21T05:59:27;11.20;;;9.97;;
5129;SDS011;2583;50.946;6.954;2023-08-21T06:01:56;11.30;;;10.10;;
5129;SDS011;2583;50.946;6.954;2023-08-21T06:04:23;7.70;;;7.10;;
5129;SDS011;2583;50.946;6.954;2023-08-21T06:06:51;8.60;;;7.70;;
5129;SDS011;2583;50.946;6.954;2023-08-21T06:09:17;8.70;;;8.00;;
5129;SDS011;2583;50.946;6.954;2023-08-21T06:11:45;10.13;;;8.87;;
5129;SDS011;2583;50.946;6.954;2023-08-21T06:14:12;9.53;;;8.73;;
5129;SDS011;2583;50.946;6.954;2023-08-21T06:16:38;8.47;;;7.37;;
5129;SDS011;2583;50.946;6.954;2023-08-21T06:19:06;8.00;;;7.30;;
5129;SDS011;2583;50.946;6.954;2023-08-21T06:21:33;8.97;;;8.20;;
5129;SDS011;2583;50.946;6.954;2023-08-21T06:23:59;8.83;;;8.17;;
5129;SDS011;2583;50.946;6.954;2023-08-21T06:26:26;10.83;;;7.77;;
5129;SDS011;2583;50.946;6.954;2023-08-21T06:28:53;9.47;;;8.53;;
5129;SDS011;2583;50.946;6.954;2023-08-21T06:31:20;16.37;;;8.30;;
5129;SDS011;2583;50.946;6.954;2023-08-21T06:33:47;9.30;;;8.47;;
5129;SDS011;2583;50.946;6.954;2023-08-21T06:36:13;13.53;;;8.10;;
5129;SDS011;2583;50.946;6.954;2023-08-21T06:38:40;10.43;;;8.60;;
5129;SDS011;2583;50.946;6.954;2023-08-21T06:41:07;9.40;;;8.70;;
5129;SDS011;2583;50.946;6.954;2023-08-21T06:43:38;9.70;;;8.77;;
5129;SDS011;2583;50.946;6.954;2023-08-21T06:46:10;9.17;;;8.23;;
5129;SDS011;2583;50.946;6.954;2023-08-21T06:48:37;8.90;;;8.20;;
5129;SDS011;2583;50.946;6.954;2023-08-21T06:51:07;8.33;;;7.77;;
5129;SDS011;2583;50.946;6.954;2023-08-21T06:53:34;15.07;;;8.83;;
5129;SDS011;2583;50.946;6.954;2023-08-21T06:56:00;8.63;;;7.60;;
5129;SDS011;2583;50.946;6.954;2023-08-21T06:58:27;18.83;;;9.00;;
5129;SDS011;2583;50.946;6.954;2023-08-21T07:00:55;8.70;;;7.90;;
5129;SDS011;2583;50.946;6.954;2023-08-21T07:03:22;11.97;;;7.83;;
5129;SDS011;2583;50.946;6.954;2023-08-21T07:05:55;10.23;;;7.60;;
5129;SDS011;2583;50.946;6.954;2023-08-21T07:08:23;8.17;;;7.13;;
5129;SDS011;2583;50.946;6.954;2023-08-21T07:10:50;9.93;;;7.57;;
5129;SDS011;2583;50.946;6.954;2023-08-21T07:13:18;8.30;;;7.50;;
5129;SDS011;2583;50.946;6.954;2023-08-21T07:15:45;9.37;;;8.47;;
5129;SDS011;2583;50.946;6.954;2023-08-21T07:18:13;13.87;;;8.13;;
5129;SDS011;2583;50.946;6.954;2023-08-21T07:20:40;13.97;;;9.50;;
5129;SDS011;2583;50.946;6.954;2023-08-21T07:23:06;9.53;;;8.00;;
5129;SDS011;2583;50.946;6.954;2023-08-21T07:25:33;7.70;;;6.97;;
5129;SDS011;2583;50.946;6.954;2023-08-21T07:28:00;8.10;;;7.10;;
5129;SDS011;2583;50.946;6.954;2023-08-21T07:30:27;8.87;;;7.70;;
5129;SDS011;2583;50.946;6.954;2023-08-21T07:32:54;11.20;;;8.30;;
5129;SDS011;2583;50.946;6.954;2023-08-21T07:35:21;14.37;;;7.70;;
5129;SDS011;2583;50.946;6.954;2023-08-21T07:37:48;10.07;;;9.00;;
5129;SDS011;2583;50.946;6.954;2023-08-21T07:40:14;12.70;;;9.30;;
5129;SDS011;2583;50.946;6.954;2023-08-21T07:42:41;12.50;;;9.17;;
5129;SDS011;2583;50.946;6.954;2023-08-21T07:45:08;14.20;;;8.87;;
5129;SDS011;2583;50.946;6.954;2023-08-21T07:47:36;9.97;;;8.90;;
5129;SDS011;2583;50.946;6.954;2023-08-21T07:50:03;9.33;;;8.43;;
5129;SDS011;2583;50.946;6.954;2023-08-21T07:52:36;12.60;;;10.43;;
5129;SDS011;2583;50.946;6.954;2023-08-21T07:55:03;10.70;;;8.80;;
5129;SDS011;2583;50.946;6.954;2023-08-21T07:57:30;10.17;;;9.10;;
5129;SDS011;2583;50.946;6.954;2023-08-21T07:59:57;9.83;;;8.80;;
5129;SDS011;2583;50.946;6.954;2023-08-21T08:02:24;12.40;;;8.93;;
5129;SDS011;2583;50.946;6.954;2023-08-21T08:04:51;13.70;;;9.20;;
5129;SDS011;2583;50.946;6.954;2023-08-21T08:07:18;11.10;;;9.40;;
5129;SDS011;2583;50.946;6.954;2023-08-21T08:09:45;10.07;;;7.63;;
5129;SDS011;2583;50.946;6.954;2023-08-21T08:12:13;8.50;;;7.80;;
5129;SDS011;2583;50.946;6.954;2023-08-21T08:14:40;9.17;;;8.43;;
5129;SDS011;2583;50.946;6.954;2023-08-21T08:17:07;12.80;;;8.50;;
5129;SDS011;2583;50.946;6.954;2023-08-21T08:19:33;11.93;;;7.77;;
5129;SDS011;2583;50.946;6.954;2023-08-21T08:22:00;9.33;;;8.53;;
5129;SDS011;2583;50.946;6.954;2023-08-21T08:24:27;9.33;;;7.93;;
5129;SDS011;2583;50.946;6.954;2023-08-21T08:26:54;10.70;;;7.83;;
5129;SDS011;2583;50.946;6.954;2023-08-21T08:29:21;11.10;;;9.10;;
5129;SDS011;2583;50.946;6.954;2023-08-21T08:31:48;10.23;;;9.27;;
5129;SDS011;2583;50.946;6.954;2023-08-21T08:34:15;9.90;;;8.40;;
5129;SDS011;2583;50.946;6.954;2023-08-21T08:36:46;8.10;;;7.50;;
5129;SDS011;2583;50.946;6.954;2023-08-21T08:39:13;9.30;;;8.60;;
5129;SDS011;2583;50.946;6.954;2023-08-21T08:41:58;8.83;;;8.10;;
5129;SDS011;2583;50.946;6.954;2023-08-21T08:44:30;9.03;;;7.70;;
5129;SDS011;2583;50.946;6.954;2023-08-21T08:46:57;10.10;;;9.20;;
5129;SDS011;2583;50.946;6.954;2023-08-21T08:49:24;10.93;;;10.00;;
5129;SDS011;2583;50.946;6.954;2023-08-21T08:51:51;11.33;;;10.10;;
5129;SDS011;2583;50.946;6.954;2023-08-21T08:54:20;12.60;;;9.40;;
5129;SDS011;2583;50.946;6.954;2023-08-21T08:56:48;9.10;;;8.23;;
5129;SDS011;2583;50.946;6.954;2023-08-21T08:59:15;11.37;;;10.47;;
5129;SDS011;2583;50.946;6.954;2023-08-21T09:01:42;8.87;;;8.10;;
5129;SDS011;2583;50.946;6.954;2023-08-21T09:04:09;11.63;;;9.10;;
5129;SDS011;2583;50.946;6.954;2023-08-21T09:06:36;11.67;;;9.67;;
5129;SDS011;2583;50.946;6.954;2023-08-21T09:09:04;9.93;;;8.97;;
5129;SDS011;2583;50.946;6.954;2023-08-21T09:11:32;8.03;;;7.30;;
5129;SDS011;2583;50.946;6.954;2023-08-21T09:13:59;7.80;;;7.00;;
5129;SDS011;2583;50.946;6.954;2023-08-21T09:16:26;9.60;;;6.60;;
5129;SDS011;2583;50.946;6.954;2023-08-21T09:18:55;14.27;;;7.20;;
5129;SDS011;2583;50.946;6.954;2023-08-21T09:21:25;7.60;;;7.00;;
5129;SDS011;2583;50.946;6.954;2023-08-21T09:23:58;11.27;;;10.37;;
5129;SDS011;2583;50.946;6.954;2023-08-21T09:26:26;14.50;;;9.27;;
5129;SDS011;2583;50.946;6.954;2023-08-21T09:28:53;9.97;;;7.77;;
5129;SDS011;2583;50.946;6.954;2023-08-21T09:31:24;12.23;;;8.90;;
5129;SDS011;2583;50.946;6.954;2023-08-21T09:33:57;10.17;;;9.37;;
5129;SDS011;2583;50.946;6.954;2023-08-21T09:36:31;11.63;;;9.60;;
5129;SDS011;2583;50.946;6.954;2023-08-21T09:38:59;12.47;;;10.27;;
5129;SDS011;2583;50.946;6.954;2023-08-21T09:41:26;9.93;;;9.03;;
5129;SDS011;2583;50.946;6.954;2023-08-21T09:43:53;13.67;;;9.60;;
5129;SDS011;2583;50.946;6.954;2023-08-21T09:46:26;10.93;;;10.07;;
5129;SDS011;2583;50.946;6.954;2023-08-21T09:48:54;8.97;;;8.17;;
5129;SDS011;2583;50.946;6.954;2023-08-21T09:51:21;13.37;;;8.70;;
5129;SDS011;2583;50.946;6.954;2023-08-21T09:53:48;9.23;;;8.30;;
5129;SDS011;2583;50.946;6.954;2023-08-21T09:56:19;14.57;;;8.80;;
5129;SDS011;2583;50.946;6.954;2023-08-21T09:58:49;9.67;;;8.73;;
5129;SDS011;2583;50.946;6.954;2023-08-21T10:01:17;16.40;;;8.17;;
5129;SDS011;2583;50.946;6.954;2023-08-21T10:03:48;15.70;;;9.37;;
5129;SDS011;2583;50.946;6.954;2023-08-21T10:06:15;12.43;;;10.40;;
5129;SDS011;2583;50.946;6.954;2023-08-21T10:08:48;12.93;;;9.30;;
5129;SDS011;2583;50.946;6.954;2023-08-21T10:11:20;12.50;;;10.13;;
5129;SDS011;2583;50.946;6.954;2023-08-21T10:13:48;11.87;;;9.40;;
5129;SDS011;2583;50.946;6.954;2023-08-21T10:16:17;13.83;;;10.33;;
5129;SDS011;2583;50.946;6.954;2023-08-21T10:18:45;12.30;;;8.67;;
5129;SDS011;2583;50.946;6.954;2023-08-21T10:21:19;15.20;;;10.60;;
5129;SDS011;2583;50.946;6.954;2023-08-21T10:23:48;15.17;;;11.30;;
5129;SDS011;2583;50.946;6.954;2023-08-21T10:26:18;20.57;;;13.30;;
5129;SDS011;2583;50.946;6.954;2023-08-21T10:28:56;14.50;;;12.10;;
5129;SDS011;2583;50.946;6.954;2023-08-21T10:31:29;14.13;;;10.83;;
5129;SDS011;2583;50.946;6.954;2023-08-21T10:33:56;20.50;;;13.27;;
5129;SDS011;2583;50.946;6.954;2023-08-21T10:36:37;14.73;;;12.00;;
5129;SDS011;2583;50.946;6.954;2023-08-21T10:39:12;18.33;;;12.03;;
5129;SDS011;2583;50.946;6.954;2023-08-21T10:47:22;15.33;;;11.70;;
5129;SDS011;2583;50.946;6.954;2023-08-21T10:50:03;13.57;;;11.43;;
5129;SDS011;2583;50.946;6.954;2023-08-21T10:52:39;10.67;;;9.63;;
5129;SDS011;2583;50.946;6.954;2023-08-21T10:55:11;13.37;;;12.07;;
5129;SDS011;2583;50.946;6.954;2023-08-21T10:57:39;16.20;;;11.33;;
5129;SDS011;2583;50.946;6.954;2023-08-21T11:00:11;11.97;;;11.00;;
5129;SDS011;2583;50.946;6.954;2023-08-21T11:02:40;14.93;;;12.77;;
5129;SDS011;2583;50.946;6.954;2023-08-21T11:05:09;15.63;;;12.73;;
5129;SDS011;2583;50.946;6.954;2023-08-21T11:07:43;13.20;;;11.90;;
5129;SDS011;2583;50.946;6.954;2023-08-21T11:10:33;12.40;;;11.30;;
5129;SDS011;2583;50.946;6.954;2023-08-21T11:12:58;11.90;;;10.67;;
5129;SDS011;2583;50.946;6.954;2023-08-21T11:15:26;13.73;;;12.27;;
5129;SDS011;2583;50.946;6.954;2023-08-21T11:17:55;12.37;;;11.30;;
5129;SDS011;2583;50.946;6.954;2023-08-21T11:20:27;16.93;;;11.97;;
5129;SDS011;2583;50.946;6.954;2023-08-21T11:23:01;12.13;;;10.87;;
5129;SDS011;2583;50.946;6.954;2023-08-21T11:25:31;20.93;;;12.67;;
5129;SDS011;2583;50.946;6.954;2023-08-21T11:27:59;12.20;;;10.57;;
5129;SDS011;2583;50.946;6.954;2023-08-21T11:30:30;14.73;;;12.00;;
5129;SDS011;2583;50.946;6.954;2023-08-21T11:33:31;12.83;;;11.60;;
5129;SDS011;2583;50.946;6.954;2023-08-21T11:35:55;16.73;;;10.03;;
5129;SDS011;2583;50.946;6.954;2023-08-21T11:38:24;12.80;;;11.47;;
5129;SDS011;2583;50.946;6.954;2023-08-21T11:43:20;9.83;;;8.93;;
5129;SDS011;2583;50.946;6.954;2023-08-21T11:45:47;13.13;;;11.77;;
5129;SDS011;2583;50.946;6.954;2023-08-21T11:48:24;11.90;;;11.00;;
5129;SDS011;2583;50.946;6.954;2023-08-21T11:50:52;11.17;;;10.20;;
5129;SDS011;2583;50.946;6.954;2023-08-21T11:53:32;12.50;;;9.40;;
5129;SDS011;2583;50.946;6.954;2023-08-21T11:55:59;8.47;;;7.73;;
5129;SDS011;2583;50.946;6.954;2023-08-21T11:58:26;9.53;;;8.60;;
5129;SDS011;2583;50.946;6.954;2023-08-21T12:00:54;8.77;;;8.10;;
5129;SDS011;2583;50.946;6.954;2023-08-21T12:03:30;14.03;;;9.13;;
5129;SDS011;2583;50.946;6.954;2023-08-21T12:05:57;9.00;;;8.10;;
5129;SDS011;2583;50.946;6.954;2023-08-21T12:08:25;10.80;;;7.73;;
5129;SDS011;2583;50.946;6.954;2023-08-21T12:10:52;9.13;;;8.30;;
5129;SDS011;2583;50.946;6.954;2023-08-21T12:13:19;8.30;;;6.90;;
5129;SDS011;2583;50.946;6.954;2023-08-21T12:15:46;7.40;;;6.70;;
5129;SDS011;2583;50.946;6.954;2023-08-21T12:18:12;10.80;;;7.27;;
5129;SDS011;2583;50.946;6.954;2023-08-21T12:20:39;9.40;;;6.90;;
5129;SDS011;2583;50.946;6.954;2023-08-21T12:23:06;10.73;;;7.33;;
5129;SDS011;2583;50.946;6.954;2023-08-21T12:25:33;10.93;;;7.30;;
5129;SDS011;2583;50.946;6.954;2023-08-21T12:28:00;7.43;;;6.60;;
5129;SDS011;2583;50.946;6.954;2023-08-21T12:30:35;5.53;;;5.00;;
5129;SDS011;2583;50.946;6.954;2023-08-21T12:33:02;9.63;;;6.20;;
5129;SDS011;2583;50.946;6.954;2023-08-21T12:35:45;6.60;;;4.70;;
5129;SDS011;2583;50.946;6.954;2023-08-21T12:38:12;5.37;;;5.07;;
5129;SDS011;2583;50.946;6.954;2023-08-21T12:40:39;7.03;;;5.57;;
5129;SDS011;2583;50.946;6.954;2023-08-21T12:43:06;6.00;;;4.50;;
5129;SDS011;2583;50.946;6.954;2023-08-21T12:45:35;5.93;;;5.00;;
5129;SDS011;2583;50.946;6.954;2023-08-21T12:48:03;8.07;;;7.27;;
5129;SDS011;2583;50.946;6.954;2023-08-21T12:50:30;7.87;;;4.63;;
5129;SDS011;2583;50.946;6.954;2023-08-21T12:52:57;6.27;;;5.63;;
5129;SDS011;2583;50.946;6.954;2023-08-21T12:55:24;8.50;;;4.63;;
5129;SDS011;2583;50.946;6.954;2023-08-21T12:57:50;4.40;;;4.00;;
5129;SDS011;2583;50.946;6.954;2023-08-21T13:00:17;5.83;;;4.70;;
5129;SDS011;2583;50.946;6.954;2023-08-21T13:02:44;5.53;;;4.40;;
5129;SDS011;2583;50.946;6.954;2023-08-21T13:05:11;5.70;;;3.60;;
5129;SDS011;2583;50.946;6.954;2023-08-21T13:07:38;5.35;;;4.45;;
5129;SDS011;2583;50.946;6.954;2023-08-21T13:10:05;4.68;;;4.22;;
5129;SDS011;2583;50.946;6.954;2023-08-21T13:12:32;4.93;;;4.47;;
5129;SDS011;2583;50.946;6.954;2023-08-21T13:14:59;7.25;;;4.38;;
5129;SDS011;2583;50.946;6.954;2023-08-21T13:17:26;4.40;;;4.00;;
5129;SDS011;2583;50.946;6.954;2023-08-21T13:19:54;6.65;;;3.70;;
5129;SDS011;2583;50.946;6.954;2023-08-21T13:22:21;9.63;;;3.97;;
5129;SDS011;2583;50.946;6.954;2023-08-21T13:24:48;5.47;;;4.10;;
5129;SDS011;2583;50.946;6.954;2023-08-21T13:27:15;4.80;;;3.85;;
5129;SDS011;2583;50.946;6.954;2023-08-21T13:29:42;3.85;;;3.20;;
5129;SDS011;2583;50.946;6.954;2023-08-21T13:32:09;5.82;;;4.07;;
5129;SDS011;2583;50.946;6.954;2023-08-21T13:34:36;4.90;;;2.92;;
5129;SDS011;2583;50.946;6.954;2023-08-21T13:37:03;3.78;;;3.47;;
5129;SDS011;2583;50.946;6.954;2023-08-21T13:39:30;5.07;;;3.72;;
5129;SDS011;2583;50.946;6.954;2023-08-21T13:41:57;3.88;;;3.15;;
5129;SDS011;2583;50.946;6.954;2023-08-21T13:44:24;3.95;;;2.80;;
5129;SDS011;2583;50.946;6.954;2023-08-21T13:46:50;3.78;;;3.47;;
5129;SDS011;2583;50.946;6.954;2023-08-21T13:49:17;3.33;;;3.03;;
5129;SDS011;2583;50.946;6.954;2023-08-21T13:51:44;4.03;;;3.53;;
5129;SDS011;2583;50.946;6.954;2023-08-21T13:54:11;3.38;;;2.95;;
5129;SDS011;2583;50.946;6.954;2023-08-21T13:56:38;4.43;;;3.00;;
5129;SDS011;2583;50.946;6.954;2023-08-21T13:59:05;5.57;;;3.83;;
5129;SDS011;2583;50.946;6.954;2023-08-21T14:01:33;4.32;;;2.95;;
5129;SDS011;2583;50.946;6.954;2023-08-21T14:04:00;3.83;;;3.08;;
5129;SDS011;2583;50.946;6.954;2023-08-21T14:06:30;3.72;;;2.65;;
5129;SDS011;2583;50.946;6.954;2023-08-21T14:08:56;3.92;;;3.25;;
5129;SDS011;2583;50.946;6.954;2023-08-21T14:11:23;4.28;;;3.10;;
5129;SDS011;2583;50.946;6.954;2023-08-21T14:13:50;3.80;;;3.03;;
5129;SDS011;2583;50.946;6.954;2023-08-21T14:16:17;4.30;;;2.70;;
5129;SDS011;2583;50.946;6.954;2023-08-21T14:18:44;7.88;;;3.05;;
5129;SDS011;2583;50.946;6.954;2023-08-21T14:21:10;5.28;;;3.17;;
5129;SDS011;2583;50.946;6.954;2023-08-21T14:23:37;4.32;;;3.53;;
5129;SDS011;2583;50.946;6.954;2023-08-21T14:26:05;6.57;;;2.95;;
5129;SDS011;2583;50.946;6.954;2023-08-21T14:28:32;4.55;;;2.97;;
5129;SDS011;2583;50.946;6.954;2023-08-21T14:30:59;5.78;;;3.47;;
5129;SDS011;2583;50.946;6.954;2023-08-21T14:33:26;4.20;;;3.50;;
5129;SDS011;2583;50.946;6.954;2023-08-21T14:35:53;5.27;;;3.57;;
5129;SDS011;2583;50.946;6.954;2023-08-21T14:38:19;3.53;;;3.20;;
5129;SDS011;2583;50.946;6.954;2023-08-21T14:40:46;4.60;;;3.50;;
5129;SDS011;2583;50.946;6.954;2023-08-21T14:43:14;3.70;;;2.83;;
5129;SDS011;2583;50.946;6.954;2023-08-21T14:45:40;5.20;;;2.83;;
5129;SDS011;2583;50.946;6.954;2023-08-21T14:48:07;8.50;;;3.30;;
5129;SDS011;2583;50.946;6.954;2023-08-21T14:50:34;6.23;;;2.90;;
5129;SDS011;2583;50.946;6.954;2023-08-21T14:53:01;10.80;;;2.90;;
5129;SDS011;2583;50.946;6.954;2023-08-21T14:55:28;6.53;;;3.27;;
5129;SDS011;2583;50.946;6.954;2023-08-21T14:57:54;4.23;;;2.90;;
5129;SDS011;2583;50.946;6.954;2023-08-21T15:00:21;6.23;;;2.60;;
5129;SDS011;2583;50.946;6.954;2023-08-21T15:02:48;5.00;;;2.90;;
5129;SDS011;2583;50.946;6.954;2023-08-21T15:05:15;3.90;;;2.97;;
5129;SDS011;2583;50.946;6.954;2023-08-21T15:07:43;4.40;;;2.40;;
5129;SDS011;2583;50.946;6.954;2023-08-21T15:10:10;4.10;;;2.80;;
5129;SDS011;2583;50.946;6.954;2023-08-21T15:12:36;4.70;;;2.47;;
5129;SDS011;2583;50.946;6.954;2023-08-21T15:15:04;4.63;;;2.73;;
5129;SDS011;2583;50.946;6.954;2023-08-21T15:17:31;6.93;;;3.30;;
5129;SDS011;2583;50.946;6.954;2023-08-21T15:19:58;3.07;;;2.47;;
5129;SDS011;2583;50.946;6.954;2023-08-21T15:22:25;4.87;;;2.67;;
5129;SDS011;2583;50.946;6.954;2023-08-21T15:24:52;3.60;;;2.60;;